Time;durP1;ratioP1;P1;durP2;ratioP2;P2;SDS_P1;SDS_P2;PMS_P1;PMS_P2;Temp;Humidity;BMP_temperature;BMP_pressure;BME280_temperature;BME280_humidity;BME280_pressure;Samples;Min_cycle;Max_cycle;Signal;HPM_P1;HPM_P2
2021/03/01 00:00:33;;;;;;;18.90;8.13;;;0.60;99.90;;;;;;5098703;27;20067;-64
2021/03/01 00:02:59;;;;;;;24.88;9.05;;;0.70;99.90;;;;;;5099804;28;20124;-64
2021/03/01 00:05:25;;;;;;;21.25;9.05;;;0.60;99.90;;;;;;5099476;28;20043;-64
2021/03/01 00:07:50;;;;;;;24.35;9.20;;;0.60;99.90;;;;;;5100179;28;20040;-64
2021/03/01 00:10:17;;;;;;;18.55;7.97;;;0.60;99.90;;;;;;5099478;28;20450;-64
2021/03/01 00:12:43;;;;;;;17.83;7.72;;;0.60;99.90;;;;;;5098607;28;20078;-64
2021/03/01 00:15:14;;;;;;;21.85;8.70;;;0.60;99.90;;;;;;5089949;28;20050;-64
2021/03/01 00:17:40;;;;;;;25.80;9.50;;;0.50;99.90;;;;;;5086772;28;20503;-64
2021/03/01 00:20:08;;;;;;;20.92;9.82;;;0.50;99.90;;;;;;5086647;28;20120;-64
2021/03/01 00:22:34;;;;;;;20.88;9.00;;;0.40;99.90;;;;;;5091927;28;20051;-64
2021/03/01 00:25:00;;;;;;;20.83;8.40;;;0.50;99.90;;;;;;5090814;28;20042;-64
2021/03/01 00:27:26;;;;;;;15.80;7.78;;;0.50;99.90;;;;;;5084872;28;20024;-64
2021/03/01 00:29:51;;;;;;;19.08;8.25;;;0.40;99.90;;;;;;5079779;28;22647;-64
2021/03/01 00:32:17;;;;;;;26.27;9.50;;;0.40;99.90;;;;;;5104455;28;20088;-64
2021/03/01 00:34:43;;;;;;;17.85;8.48;;;0.40;99.90;;;;;;5107184;28;20031;-64
2021/03/01 00:37:09;;;;;;;15.65;8.10;;;0.40;99.90;;;;;;5106485;28;20047;-64
2021/03/01 00:39:35;;;;;;;17.58;7.85;;;0.40;99.90;;;;;;5106699;28;20059;-64
2021/03/01 00:42:00;;;;;;;17.83;7.72;;;0.40;99.90;;;;;;5106611;28;20195;-64
2021/03/01 00:44:26;;;;;;;19.83;7.78;;;0.40;99.90;;;;;;5106262;28;20135;-65
2021/03/01 00:46:52;;;;;;;26.23;8.18;;;0.40;99.90;;;;;;5105780;28;20039;-64
2021/03/01 00:49:17;;;;;;;18.13;7.13;;;0.30;99.90;;;;;;5106475;28;20116;-64
2021/03/01 00:51:43;;;;;;;17.73;7.07;;;0.40;99.90;;;;;;5107037;28;20498;-64
2021/03/01 00:54:08;;;;;;;20.23;7.70;;;0.30;99.90;;;;;;5107010;28;20136;-65
2021/03/01 00:56:34;;;;;;;19.70;7.60;;;0.30;99.90;;;;;;5106043;28;20102;-64
2021/03/01 00:58:59;;;;;;;24.17;7.63;;;0.40;99.90;;;;;;5107153;28;20441;-64
2021/03/01 01:01:25;;;;;;;16.73;7.82;;;0.40;99.90;;;;;;5106004;28;20155;-64
2021/03/01 01:03:51;;;;;;;17.85;6.75;;;0.40;99.90;;;;;;5106922;28;20039;-63
2021/03/01 01:06:16;;;;;;;15.93;7.40;;;0.30;99.90;;;;;;5106204;28;20032;-65
2021/03/01 01:08:42;;;;;;;15.65;6.38;;;0.30;99.90;;;;;;5106220;28;20565;-64
2021/03/01 01:11:07;;;;;;;17.30;7.72;;;0.40;99.90;;;;;;5104499;28;20085;-64
2021/03/01 01:13:33;;;;;;;18.23;7.25;;;0.40;99.90;;;;;;5106548;28;20043;-64
2021/03/01 01:15:59;;;;;;;16.20;7.20;;;0.40;99.90;;;;;;5105739;27;20044;-64
2021/03/01 01:18:25;;;;;;;18.05;7.85;;;0.40;99.90;;;;;;5106272;28;20104;-64
2021/03/01 01:20:52;;;;;;;23.60;8.18;;;0.30;99.90;;;;;;5106586;28;20503;-64
2021/03/01 01:23:18;;;;;;;16.85;7.80;;;0.30;99.90;;;;;;5106836;28;20522;-64
2021/03/01 01:25:44;;;;;;;21.58;7.72;;;0.30;99.90;;;;;;5103556;28;20044;-64
2021/03/01 01:28:10;;;;;;;17.10;8.45;;;0.20;99.90;;;;;;5105605;28;20040;-64
2021/03/01 01:30:36;;;;;;;20.85;7.95;;;0.20;99.90;;;;;;5105227;28;20728;-64
2021/03/01 01:33:02;;;;;;;14.23;7.10;;;0.20;99.90;;;;;;5106090;28;20092;-64
2021/03/01 01:35:28;;;;;;;15.43;6.50;;;0.30;99.90;;;;;;5105366;28;20043;-64
2021/03/01 01:37:53;;;;;;;20.95;7.35;;;0.20;99.90;;;;;;5106046;28;20041;-64
2021/03/01 01:40:22;;;;;;;22.98;7.53;;;0.20;99.90;;;;;;5105038;28;20028;-64
2021/03/01 01:42:49;;;;;;;22.88;7.15;;;0.20;99.90;;;;;;5104856;28;20055;-64
2021/03/01 01:45:19;;;;;;;24.00;7.90;;;0.20;99.90;;;;;;5105365;28;20502;-64
2021/03/01 01:47:45;;;;;;;22.00;7.40;;;0.20;99.90;;;;;;5105164;28;20036;-64
2021/03/01 01:50:12;;;;;;;15.82;7.63;;;0.20;99.90;;;;;;5105802;28;20043;-64
2021/03/01 01:52:38;;;;;;;19.30;8.40;;;0.20;99.90;;;;;;5101935;28;20619;-64
2021/03/01 01:55:05;;;;;;;20.50;8.25;;;0.20;99.90;;;;;;5105371;28;20636;-63
2021/03/01 01:57:31;;;;;;;20.00;7.07;;;0.20;99.90;;;;;;5097571;28;20036;-64
2021/03/01 01:59:57;;;;;;;19.73;8.05;;;0.20;99.90;;;;;;5105749;28;20058;-64
2021/03/01 02:02:23;;;;;;;20.08;7.85;;;0.30;99.90;;;;;;5104537;28;20039;-64
2021/03/01 02:04:54;;;;;;;19.55;7.78;;;0.30;99.90;;;;;;5105135;28;20407;-64
2021/03/01 02:07:25;;;;;;;25.17;8.63;;;0.20;99.90;;;;;;5105338;28;20067;-64
2021/03/01 02:10:14;;;;;;;22.77;7.93;;;0.20;99.90;;;;;;5105239;28;20046;-64
2021/03/01 02:12:52;;;;;;;23.52;7.28;;;0.10;99.90;;;;;;5105677;28;20628;-64
2021/03/01 02:15:43;;;;;;;23.98;7.95;;;0.20;99.90;;;;;;5084547;28;20085;-64
2021/03/01 02:18:09;;;;;;;17.38;6.93;;;0.20;99.90;;;;;;5076644;28;20032;-64
2021/03/01 02:20:41;;;;;;;13.73;6.93;;;0.20;99.90;;;;;;5084968;28;20043;-64
2021/03/01 02:23:07;;;;;;;19.77;6.97;;;0.10;99.90;;;;;;5092018;28;20535;-64
2021/03/01 02:25:33;;;;;;;16.95;7.07;;;0.10;99.90;;;;;;5084462;28;20043;-63
2021/03/01 02:28:07;;;;;;;14.65;6.63;;;0.10;99.90;;;;;;5084390;28;20032;-64
2021/03/01 02:30:52;;;;;;;18.20;7.15;;;0.10;99.90;;;;;;5087210;28;20180;-64
2021/03/01 02:33:21;;;;;;;17.67;7.47;;;0.20;99.90;;;;;;5105527;28;20100;-64
2021/03/01 02:35:54;;;;;;;16.80;6.72;;;0.20;99.90;;;;;;5104378;28;20072;-64
2021/03/01 02:38:25;;;;;;;16.90;6.97;;;0.20;99.90;;;;;;5103186;28;20050;-64
2021/03/01 02:40:52;;;;;;;21.45;8.32;;;0.10;99.90;;;;;;5092840;28;20035;-65
2021/03/01 02:43:19;;;;;;;18.42;8.35;;;0.10;99.90;;;;;;5085523;28;20093;-64
2021/03/01 02:45:46;;;;;;;23.40;8.05;;;0.10;99.90;;;;;;5084458;28;20090;-64
2021/03/01 02:48:13;;;;;;;23.65;8.18;;;0.10;99.90;;;;;;5084882;28;20032;-64
2021/03/01 02:50:41;;;;;;;19.58;8.27;;;0.20;99.90;;;;;;5099004;28;20136;-64
2021/03/01 02:53:06;;;;;;;19.88;8.65;;;0.20;99.90;;;;;;5101829;27;20049;-64
2021/03/01 02:55:34;;;;;;;20.13;7.93;;;0.20;99.90;;;;;;5117977;27;20043;-64
2021/03/01 02:58:01;;;;;;;22.85;8.90;;;0.20;99.90;;;;;;5092971;28;20040;-64
2021/03/01 03:00:27;;;;;;;20.67;8.63;;;0.20;99.90;;;;;;5084222;28;20036;-64
2021/03/01 03:02:54;;;;;;;21.55;9.43;;;0.20;99.90;;;;;;5095881;28;20035;-64
2021/03/01 03:05:23;;;;;;;22.58;8.20;;;0.20;99.90;;;;;;5089731;28;20073;-64
2021/03/01 03:07:49;;;;;;;22.75;8.93;;;0.20;99.90;;;;;;5083990;28;20606;-64
2021/03/01 03:10:18;;;;;;;22.55;8.95;;;0.20;99.90;;;;;;5084800;28;20621;-64
2021/03/01 03:12:44;;;;;;;24.05;8.82;;;0.10;99.90;;;;;;5093729;28;20040;-64
2021/03/01 03:15:20;;;;;;;23.80;8.82;;;0.10;99.90;;;;;;5084044;28;20036;-64
2021/03/01 03:17:46;;;;;;;25.52;9.35;;;0.20;99.90;;;;;;5092496;28;20052;-64
2021/03/01 03:20:12;;;;;;;35.42;12.18;;;0.10;99.90;;;;;;5084473;28;20068;-64
2021/03/01 03:22:39;;;;;;;25.33;8.50;;;0.10;99.90;;;;;;5097188;28;20039;-64
2021/03/01 03:25:05;;;;;;;23.25;9.85;;;0.10;99.90;;;;;;5105867;27;20162;-64
2021/03/01 03:27:31;;;;;;;21.90;8.63;;;0.10;99.90;;;;;;5096463;28;20039;-64
2021/03/01 03:29:56;;;;;;;19.90;7.95;;;0.00;99.90;;;;;;5094616;28;20126;-64
2021/03/01 03:32:22;;;;;;;26.23;9.45;;;0.10;99.90;;;;;;5084625;28;20508;-65
2021/03/01 03:34:49;;;;;;;26.55;8.98;;;0.10;99.90;;;;;;5096256;28;20039;-64
2021/03/01 03:37:33;;;;;;;26.70;10.45;;;0.10;99.90;;;;;;5085295;28;20522;-64
2021/03/01 03:40:01;;;;;;;20.92;9.38;;;0.10;99.90;;;;;;5084683;28;20580;-64
2021/03/01 03:42:28;;;;;;;25.13;9.38;;;0.10;99.90;;;;;;5083811;28;20079;-64
2021/03/01 03:44:56;;;;;;;23.65;9.38;;;0.20;99.90;;;;;;5084273;28;20416;-64
2021/03/01 03:47:23;;;;;;;20.60;9.02;;;0.10;99.90;;;;;;5099207;28;20175;-64
2021/03/01 03:49:53;;;;;;;20.70;8.93;;;0.10;99.90;;;;;;5097735;28;20032;-64
2021/03/01 03:52:23;;;;;;;18.98;8.98;;;0.00;99.90;;;;;;5107693;27;20039;-64
2021/03/01 03:54:51;;;;;;;28.08;8.95;;;0.00;99.90;;;;;;5106806;28;20039;-64
2021/03/01 03:57:23;;;;;;;22.58;8.27;;;0.00;99.90;;;;;;5103049;28;20043;-64
2021/03/01 03:59:52;;;;;;;23.25;9.35;;;0.10;99.90;;;;;;5101541;28;20036;-64
2021/03/01 04:02:19;;;;;;;24.60;8.95;;;0.00;99.90;;;;;;5114250;27;20081;-64
2021/03/01 04:04:46;;;;;;;26.45;9.63;;;0.00;99.90;;;;;;5094671;28;20043;-64
2021/03/01 04:07:14;;;;;;;21.38;8.77;;;0.00;99.90;;;;;;5087264;28;20102;-64
2021/03/01 04:09:43;;;;;;;22.13;8.18;;;0.00;99.90;;;;;;5096409;28;20470;-64
2021/03/01 04:12:11;;;;;;;22.50;8.90;;;0.00;99.90;;;;;;5100307;28;20463;-63
2021/03/01 04:14:39;;;;;;;23.58;9.15;;;0.10;99.90;;;;;;5095979;28;20269;-64
2021/03/01 04:17:09;;;;;;;22.05;8.68;;;0.10;99.90;;;;;;5086807;28;20291;-64
2021/03/01 04:19:36;;;;;;;23.70;9.82;;;0.10;99.90;;;;;;5096413;28;20511;-64
2021/03/01 04:22:04;;;;;;;19.30;8.35;;;0.10;99.90;;;;;;5089645;27;20496;-64
2021/03/01 04:24:31;;;;;;;24.90;9.10;;;0.10;99.90;;;;;;5102477;27;20135;-64
2021/03/01 04:27:00;;;;;;;22.17;8.98;;;0.00;99.90;;;;;;5106269;28;20477;-63
2021/03/01 04:29:27;;;;;;;21.75;9.15;;;0.00;99.90;;;;;;5097057;28;20526;-63
2021/03/01 04:31:54;;;;;;;22.80;9.77;;;0.00;99.90;;;;;;5094502;28;20516;-64
2021/03/01 04:34:20;;;;;;;22.02;8.50;;;0.10;99.90;;;;;;5087249;28;20042;-64
2021/03/01 04:36:46;;;;;;;21.50;9.05;;;0.00;99.90;;;;;;5095037;28;20049;-64
2021/03/01 04:39:12;;;;;;;23.55;8.43;;;0.00;99.90;;;;;;5087589;28;20058;-64
2021/03/01 04:41:41;;;;;;;20.83;9.52;;;0.00;99.90;;;;;;5086960;28;20491;-63
2021/03/01 04:44:09;;;;;;;23.50;8.20;;;0.00;99.90;;;;;;5087208;28;20072;-63
2021/03/01 04:46:37;;;;;;;22.77;8.68;;;-0.10;99.90;;;;;;5086024;28;20043;-64
2021/03/01 04:49:04;;;;;;;21.20;8.48;;;-0.10;99.90;;;;;;5090624;28;20067;-63
2021/03/01 04:51:30;;;;;;;20.55;8.82;;;-0.10;99.90;;;;;;5097981;28;20292;-63
2021/03/01 04:53:57;;;;;;;20.40;9.73;;;-0.20;99.90;;;;;;5101133;27;20898;-63
2021/03/01 04:56:23;;;;;;;18.95;8.43;;;-0.10;99.90;;;;;;5099476;28;20086;-63
2021/03/01 04:58:51;;;;;;;23.52;9.38;;;-0.10;99.90;;;;;;5087902;28;20719;-63
2021/03/01 05:01:17;;;;;;;24.23;9.25;;;-0.10;99.90;;;;;;5094642;28;20028;-63
2021/03/01 05:03:44;;;;;;;21.98;8.55;;;-0.10;99.90;;;;;;5094518;28;20506;-63
2021/03/01 05:06:11;;;;;;;23.00;8.68;;;-0.10;99.90;;;;;;5094094;28;20043;-63
2021/03/01 05:08:38;;;;;;;18.95;8.23;;;-0.20;99.90;;;;;;5086432;28;20047;-64
2021/03/01 05:11:07;;;;;;;20.30;8.63;;;-0.20;99.90;;;;;;5091175;28;20032;-63
2021/03/01 05:13:33;;;;;;;18.67;7.63;;;-0.20;99.90;;;;;;5099294;28;20051;-64
2021/03/01 05:16:00;;;;;;;18.70;7.97;;;-0.20;99.90;;;;;;5085080;28;20113;-64
2021/03/01 05:18:27;;;;;;;24.40;9.25;;;-0.20;99.90;;;;;;5086301;28;20040;-63
2021/03/01 05:20:55;;;;;;;21.48;9.15;;;-0.20;99.90;;;;;;5085548;28;20105;-63
2021/03/01 05:23:20;;;;;;;22.45;8.50;;;-0.20;99.90;;;;;;5104462;27;20483;-66
2021/03/01 05:25:46;;;;;;;20.40;7.45;;;-0.20;99.90;;;;;;5103793;28;20084;-62
2021/03/01 05:28:12;;;;;;;25.15;9.48;;;-0.20;99.90;;;;;;5086498;28;20049;-66
2021/03/01 05:30:37;;;;;;;17.90;7.93;;;-0.20;99.90;;;;;;5084267;28;20032;-64
2021/03/01 05:33:03;;;;;;;25.45;9.65;;;-0.20;99.90;;;;;;5084686;28;20492;-64
2021/03/01 05:35:29;;;;;;;19.80;7.95;;;-0.20;99.90;;;;;;5094653;28;20138;-65
2021/03/01 05:37:54;;;;;;;17.85;7.78;;;-0.20;99.90;;;;;;5097322;28;20713;-63
2021/03/01 05:40:20;;;;;;;24.00;8.25;;;-0.20;99.90;;;;;;5076158;22;20052;-76
2021/03/01 05:42:48;;;;;;;23.10;8.50;;;-0.30;99.90;;;;;;5049977;28;20040;-76
2021/03/01 05:45:14;;;;;;;18.20;8.18;;;-0.30;99.90;;;;;;5047248;28;20115;-74
2021/03/01 05:47:40;;;;;;;15.82;7.15;;;-0.30;99.90;;;;;;5057630;28;20072;-73
2021/03/01 05:50:08;;;;;;;22.40;7.97;;;-0.30;99.90;;;;;;5065479;28;20036;-73
2021/03/01 05:52:36;;;;;;;19.60;8.00;;;-0.40;99.90;;;;;;5064430;28;20119;-73
2021/03/01 05:55:05;;;;;;;17.77;7.78;;;-0.40;99.90;;;;;;5062970;28;20036;-73
2021/03/01 05:57:32;;;;;;;19.70;7.75;;;-0.40;99.90;;;;;;5086796;28;20044;-75
2021/03/01 06:00:00;;;;;;;21.10;7.53;;;-0.40;99.90;;;;;;5061262;28;20120;-74
2021/03/01 06:02:26;;;;;;;23.15;7.93;;;-0.40;99.90;;;;;;5061992;28;20044;-74
2021/03/01 06:04:53;;;;;;;14.25;6.97;;;-0.40;99.90;;;;;;5065682;28;20036;-74
2021/03/01 06:07:19;;;;;;;18.45;7.88;;;-0.40;99.90;;;;;;5051559;28;20029;-74
2021/03/01 06:09:44;;;;;;;21.23;7.57;;;-0.30;99.90;;;;;;5050784;28;20037;-75
2021/03/01 06:12:11;;;;;;;19.10;7.07;;;-0.30;99.90;;;;;;5051812;28;20040;-74
2021/03/01 06:14:39;;;;;;;16.58;7.25;;;-0.40;99.90;;;;;;5068557;28;20136;-74
2021/03/01 06:17:13;;;;;;;20.25;7.63;;;-0.40;99.90;;;;;;5059339;28;20043;-74
2021/03/01 06:19:59;;;;;;;17.10;6.78;;;-0.40;99.90;;;;;;5061744;28;20044;-74
2021/03/01 06:22:31;;;;;;;22.38;7.75;;;-0.30;99.90;;;;;;5072935;28;20070;-74
2021/03/01 06:25:23;;;;;;;16.40;6.75;;;-0.40;99.90;;;;;;5081104;28;20112;-75
2021/03/01 06:27:55;;;;;;;17.98;7.43;;;-0.40;99.90;;;;;;5068780;28;20123;-74
2021/03/01 06:30:24;;;;;;;21.42;7.43;;;-0.40;99.90;;;;;;5069229;28;20032;-75
2021/03/01 06:33:19;;;;;;;18.17;6.57;;;-0.40;99.90;;;;;;5061325;28;20048;-74
2021/03/01 06:35:51;;;;;;;14.82;6.53;;;-0.30;99.90;;;;;;5050716;28;20044;-74
2021/03/01 06:38:22;;;;;;;21.40;8.13;;;-0.30;99.90;;;;;;5059442;28;20042;-74
2021/03/01 06:41:18;;;;;;;17.75;6.82;;;-0.30;99.90;;;;;;5086749;28;20051;-75
2021/03/01 06:43:54;;;;;;;13.73;6.88;;;-0.20;99.90;;;;;;5058471;28;20047;-74
2021/03/01 06:46:21;;;;;;;19.55;7.13;;;-0.20;99.90;;;;;;5058407;28;20036;-74
2021/03/01 06:48:47;;;;;;;13.70;6.57;;;-0.20;99.90;;;;;;5065124;28;20043;-74
2021/03/01 06:51:12;;;;;;;20.27;6.93;;;-0.20;99.90;;;;;;5060728;28;20033;-75
2021/03/01 06:53:38;;;;;;;13.77;6.18;;;-0.10;99.90;;;;;;5065787;28;20134;-75
2021/03/01 06:56:11;;;;;;;16.50;5.93;;;-0.10;99.90;;;;;;5061327;28;20040;-74
2021/03/01 06:58:39;;;;;;;15.38;5.55;;;0.40;99.90;;;;;;5084354;28;20040;-75
2021/03/01 07:01:16;;;;;;;12.55;6.05;;;0.80;99.90;;;;;;5060408;28;20178;-75
2021/03/01 07:03:49;;;;;;;14.40;6.85;;;1.00;99.90;;;;;;5049732;28;20047;-76
2021/03/01 07:06:17;;;;;;;13.75;7.68;;;1.40;99.90;;;;;;5070281;28;20037;-75
2021/03/01 07:08:52;;;;;;;17.27;6.60;;;2.30;99.90;;;;;;5069017;28;20040;-75
2021/03/01 07:11:34;;;;;;;14.75;7.13;;;2.70;99.90;;;;;;5068732;28;20520;-76
2021/03/01 07:14:06;;;;;;;22.33;13.25;;;2.80;99.90;;;;;;5063723;28;20028;-75
2021/03/01 07:16:49;;;;;;;24.02;13.30;;;2.60;99.90;;;;;;5060393;28;20048;-76
2021/03/01 07:19:28;;;;;;;16.15;9.05;;;2.80;99.90;;;;;;5061200;28;20040;-75
2021/03/01 07:21:57;;;;;;;29.63;13.07;;;3.20;99.90;;;;;;5055543;28;20032;-75
2021/03/01 07:24:26;;;;;;;18.67;9.80;;;3.20;99.90;;;;;;5065010;28;20040;-75
2021/03/01 07:26:56;;;;;;;16.65;8.68;;;3.20;99.90;;;;;;5059694;28;20106;-75
2021/03/01 07:29:23;;;;;;;13.27;6.13;;;3.30;99.90;;;;;;5069963;28;20043;-75
2021/03/01 07:32:01;;;;;;;11.98;5.75;;;3.50;99.90;;;;;;5065124;28;20034;-75
2021/03/01 07:34:28;;;;;;;14.52;7.65;;;3.50;99.90;;;;;;5071182;28;20089;-77
2021/03/01 07:36:55;;;;;;;16.60;7.28;;;3.50;99.90;;;;;;5064912;28;20047;-76
2021/03/01 07:39:22;;;;;;;12.18;6.65;;;3.20;99.90;;;;;;5061753;28;20036;-76
2021/03/01 07:41:49;;;;;;;12.68;6.25;;;3.10;99.90;;;;;;5070897;28;20133;-76
2021/03/01 07:44:21;;;;;;;14.43;6.20;;;3.10;99.90;;;;;;5071999;28;20106;-76
2021/03/01 07:46:48;;;;;;;8.07;4.40;;;3.20;99.90;;;;;;5073796;28;20124;-76
2021/03/01 07:49:34;;;;;;;12.48;4.68;;;3.10;99.90;;;;;;5072228;28;20180;-77
2021/03/01 07:52:00;;;;;;;7.43;3.43;;;3.10;99.90;;;;;;5085734;28;20032;-77
2021/03/01 07:54:52;;;;;;;6.93;3.60;;;3.30;99.90;;;;;;5075013;28;20072;-77
2021/03/01 07:57:19;;;;;;;8.18;3.95;;;3.40;99.90;;;;;;5087304;28;20053;-77
2021/03/01 07:59:46;;;;;;;35.08;20.95;;;3.50;99.90;;;;;;5091115;28;20032;-77
2021/03/01 08:02:14;;;;;;;12.05;6.03;;;3.60;99.90;;;;;;5071169;28;20127;-77
2021/03/01 08:04:40;;;;;;;12.70;4.40;;;3.90;99.90;;;;;;5066097;28;20493;-77
2021/03/01 08:07:06;;;;;;;;;;;4.40;99.90;;;;;;5072693;28;20043;-76
2021/03/01 08:09:39;;;;;;;6.53;3.70;;;5.30;99.90;;;;;;5072893;28;20011;-77
2021/03/01 08:12:05;;;;;;;5.90;2.72;;;5.80;99.90;;;;;;5072312;28;20039;-76
2021/03/01 08:14:50;;;;;;;4.88;2.90;;;6.00;99.90;;;;;;5072650;28;20044;-79
2021/03/01 08:17:25;;;;;;;5.90;3.00;;;6.00;99.90;;;;;;5060763;28;20036;-78
2021/03/01 08:19:53;;;;;;;6.93;3.45;;;6.10;99.90;;;;;;5089596;28;20131;-77
2021/03/01 08:22:19;;;;;;;13.20;8.30;;;6.10;99.90;;;;;;5076738;28;20041;-77
2021/03/01 08:24:45;;;;;;;;;;;6.20;99.90;;;;;;5058945;28;20040;-78
2021/03/01 08:27:26;;;;;;;8.18;4.30;;;6.10;99.90;;;;;;5083492;28;19916;-76
2021/03/01 08:30:20;;;;;;;18.73;11.20;;;6.00;99.90;;;;;;5072742;28;20040;-79
2021/03/01 08:33:07;;;;;;;9.85;5.50;;;5.50;99.90;;;;;;5071907;28;20040;-78
2021/03/01 08:35:40;;;;;;;9.48;4.50;;;5.20;99.90;;;;;;5070757;28;20048;-78
2021/03/01 08:38:08;;;;;;;7.43;4.18;;;4.90;99.90;;;;;;5064755;28;20092;-78
2021/03/01 08:40:34;;;;;;;19.90;8.38;;;4.80;99.90;;;;;;5072815;28;20050;-78
2021/03/01 08:43:02;;;;;;;11.63;5.38;;;4.70;99.90;;;;;;5088466;28;20075;-78
2021/03/01 08:45:43;;;;;;;12.65;6.47;;;4.70;99.90;;;;;;5070839;28;20045;-79
2021/03/01 08:48:20;;;;;;;10.27;6.32;;;4.70;99.90;;;;;;5071493;28;20580;-79
2021/03/01 08:50:48;;;;;;;17.05;8.10;;;4.80;99.90;;;;;;5070041;28;20077;-79
2021/03/01 08:53:26;;;;;;;17.85;9.40;;;4.80;99.90;;;;;;5078157;28;20055;-79
2021/03/01 08:55:53;;;;;;;20.77;9.32;;;4.90;99.90;;;;;;5064078;28;20398;-78
2021/03/01 08:58:21;;;;;;;26.95;14.35;;;4.90;99.90;;;;;;5074100;28;20115;-79
2021/03/01 09:00:57;;;;;;;20.75;12.85;;;5.00;99.90;;;;;;5090450;28;20119;-79
2021/03/01 09:03:34;;;;;;;11.40;6.05;;;5.00;99.90;;;;;;5072649;28;20040;-79
2021/03/01 09:06:08;;;;;;;17.23;6.53;;;5.10;99.90;;;;;;5072176;28;20089;-78
2021/03/01 09:08:41;;;;;;;12.20;6.65;;;5.10;99.90;;;;;;5072157;28;20404;-79
2021/03/01 09:11:18;;;;;;;9.52;5.28;;;5.30;99.90;;;;;;5071842;28;20040;-79
2021/03/01 09:13:46;;;;;;;9.10;4.63;;;5.30;99.90;;;;;;5071725;28;20067;-79
2021/03/01 09:16:17;;;;;;;9.10;4.70;;;5.40;99.90;;;;;;5065812;28;20040;-79
2021/03/01 09:18:46;;;;;;;10.80;5.15;;;5.60;99.90;;;;;;5071152;28;20039;-79
2021/03/01 09:21:17;;;;;;;13.95;5.18;;;5.70;99.90;;;;;;5071449;28;20039;-79
2021/03/01 09:23:51;;;;;;;8.20;4.47;;;5.80;99.90;;;;;;5070682;28;20098;-79
2021/03/01 09:26:26;;;;;;;10.73;5.85;;;5.80;99.90;;;;;;5061453;28;20040;-78
2021/03/01 09:28:54;;;;;;;11.52;6.38;;;5.80;99.90;;;;;;5055426;28;20033;-79
2021/03/01 09:31:20;;;;;;;8.80;4.85;;;5.90;99.90;;;;;;5070032;28;20063;-80
2021/03/01 09:33:46;;;;;;;;;;;5.90;99.90;;;;;;5071032;28;20421;-80
2021/03/01 09:36:13;;;;;;;12.25;5.80;;;6.20;99.90;;;;;;5054103;28;19943;-80
2021/03/01 09:38:40;;;;;;;10.10;5.47;;;6.40;99.90;;;;;;5056831;28;20043;-80
2021/03/01 09:41:07;;;;;;;6.93;3.65;;;6.60;99.90;;;;;;5060222;28;20131;-80
2021/03/01 09:43:33;;;;;;;6.55;4.18;;;6.60;99.90;;;;;;5061860;28;20048;-78
2021/03/01 09:46:01;;;;;;;4.50;3.17;;;6.60;99.90;;;;;;5070005;28;20555;-80
2021/03/01 09:48:32;;;;;;;7.55;3.75;;;6.60;99.90;;;;;;5061412;28;20044;-79
2021/03/01 09:50:58;;;;;;;3.90;2.42;;;6.70;99.90;;;;;;5054757;28;20087;-80
2021/03/01 09:53:27;;;;;;;3.45;2.08;;;6.60;99.90;;;;;;5081875;28;20048;-80
2021/03/01 09:55:53;;;;;;;7.22;3.20;;;6.70;99.90;;;;;;5069015;28;20036;-79
2021/03/01 09:58:27;;;;;;;4.18;2.88;;;6.80;99.90;;;;;;5059957;28;20523;-80
2021/03/01 10:01:09;;;;;;;4.07;2.97;;;6.70;99.90;;;;;;5062258;28;20036;-80
2021/03/01 10:03:37;;;;;;;3.75;2.67;;;6.80;99.90;;;;;;5058485;28;20035;-81
2021/03/01 10:06:03;;;;;;;3.95;2.58;;;6.90;99.90;;;;;;5069748;28;20043;-81
2021/03/01 10:08:29;;;;;;;3.40;2.38;;;7.10;99.90;;;;;;5061940;28;20043;-80
2021/03/01 10:10:56;;;;;;;;;;;7.10;99.90;;;;;;5070568;28;20563;-81
2021/03/01 10:13:34;;;;;;;3.60;2.17;;;7.20;99.90;;;;;;5069345;28;19991;-81
2021/03/01 10:16:07;;;;;;;2.08;1.60;;;7.30;99.90;;;;;;5054848;28;20064;-80
2021/03/01 10:18:33;;;;;;;4.45;2.60;;;7.40;99.90;;;;;;5087795;28;20652;-81
2021/03/01 10:21:03;;;;;;;3.15;2.03;;;7.50;99.90;;;;;;5084917;28;20132;-80
2021/03/01 10:23:35;;;;;;;2.30;1.77;;;7.50;99.90;;;;;;5065497;28;20048;-80
2021/03/01 10:26:16;;;;;;;3.45;2.25;;;7.60;99.90;;;;;;5057307;28;20035;-79
2021/03/01 10:28:51;;;;;;;3.88;1.75;;;7.80;99.90;;;;;;5071096;28;20391;-78
2021/03/01 10:31:19;;;;;;;2.00;1.60;;;8.00;99.90;;;;;;5061083;28;20036;-82
2021/03/01 10:33:52;;;;;;;2.20;1.70;;;8.10;99.90;;;;;;5065953;28;20032;-79
2021/03/01 10:36:19;;;;;;;2.35;1.77;;;8.30;99.90;;;;;;5050390;28;20068;-78
2021/03/01 10:39:06;;;;;;;1.45;1.35;;;8.40;99.90;;;;;;5055437;28;20123;-81
2021/03/01 10:41:45;;;;;;;1.95;1.27;;;8.40;99.90;;;;;;5068261;28;20047;-80
2021/03/01 10:44:12;;;;;;;1.70;1.40;;;8.60;99.90;;;;;;5056905;28;20050;-80
2021/03/01 10:46:44;;;;;;;2.60;1.50;;;8.70;99.60;;;;;;5058558;28;20037;-81
2021/03/01 10:49:23;;;;;;;1.67;1.00;;;8.80;99.30;;;;;;5077164;28;20551;-80
2021/03/01 10:51:50;;;;;;;4.18;1.20;;;8.90;97.60;;;;;;5065694;28;20168;-79
2021/03/01 10:54:16;;;;;;;2.38;1.27;;;8.90;95.80;;;;;;5063807;28;20047;-80
2021/03/01 10:56:43;;;;;;;2.60;1.67;;;8.90;95.80;;;;;;5078535;28;20040;-80
2021/03/01 10:59:09;;;;;;;1.23;1.10;;;9.00;95.00;;;;;;5067445;28;20044;-79
2021/03/01 11:01:43;;;;;;;3.83;0.90;;;9.20;94.60;;;;;;5060474;28;20036;-78
2021/03/01 11:04:11;;;;;;;4.13;1.58;;;9.30;94.20;;;;;;5062373;28;20123;-78
2021/03/01 11:06:37;;;;;;;4.05;1.10;;;9.30;95.40;;;;;;5058100;28;20113;-77
2021/03/01 11:09:05;;;;;;;1.98;1.13;;;9.50;93.40;;;;;;5061025;28;20038;-77
2021/03/01 11:11:32;;;;;;;1.75;1.08;;;9.50;92.40;;;;;;5067432;28;20143;-78
2021/03/01 11:13:59;;;;;;;1.60;1.00;;;9.60;92.90;;;;;;5071247;28;20133;-78
2021/03/01 11:17:05;;;;;;;2.03;1.15;;;9.60;93.00;;;;;;5056284;28;20041;-80
2021/03/01 11:20:19;;;;;;;1.10;0.70;;;9.60;93.10;;;;;;5053030;28;20409;-77
2021/03/01 11:22:58;;;;;;;4.40;2.42;;;9.70;93.80;;;;;;5032003;28;20127;-80
2021/03/01 11:25:25;;;;;;;;;;;9.80;92.20;;;;;;5044640;28;20128;-80
2021/03/01 11:27:51;;;;;;;14.52;3.33;;;9.90;91.90;;;;;;5064025;28;19923;-80
2021/03/01 11:30:17;;;;;;;;;;;10.00;92.00;;;;;;5045084;28;20037;-75
2021/03/01 11:32:42;;;;;;;2.35;1.70;;;10.00;90.60;;;;;;5049982;28;19916;-77
2021/03/01 11:35:08;;;;;;;;;;;9.90;90.40;;;;;;5064801;28;20090;-77
2021/03/01 11:37:34;;;;;;;0.57;0.40;;;10.00;90.20;;;;;;5042224;28;19920;-75
2021/03/01 11:40:00;;;;;;;;;;;10.10;90.70;;;;;;5057448;28;20044;-77
2021/03/01 11:42:25;;;;;;;2.47;1.63;;;10.10;90.20;;;;;;5039438;28;19916;-79
2021/03/01 11:44:51;;;;;;;;;;;10.20;90.10;;;;;;5048704;28;20036;-77
2021/03/01 11:47:17;;;;;;;8.38;0.93;;;10.20;89.80;;;;;;5056043;28;19928;-79
2021/03/01 11:49:44;;;;;;;1.80;0.52;;;10.20;86.70;;;;;;5057680;28;20123;-78
2021/03/01 11:52:10;;;;;;;;;;;10.40;88.80;;;;;;5041848;28;20124;-77
2021/03/01 11:54:36;;;;;;;1.42;0.30;;;10.20;85.50;;;;;;5039995;28;19928;-77
2021/03/01 11:57:01;;;;;;;;;;;10.30;90.40;;;;;;5056903;28;20044;-76
2021/03/01 11:59:27;;;;;;;0.70;0.40;;;10.40;87.50;;;;;;5044051;28;19916;-79
2021/03/01 12:01:55;;;;;;;;;;;10.50;88.20;;;;;;5039155;28;20037;-77
2021/03/01 12:04:20;;;;;;;0.65;0.40;;;10.30;85.60;;;;;;5042731;28;19921;-78
2021/03/01 12:06:47;;;;;;;;;;;10.40;88.10;;;;;;5041773;28;20045;-79
2021/03/01 12:09:13;;;;;;;0.73;0.50;;;10.30;85.20;;;;;;5048769;28;19924;-77
2021/03/01 12:11:39;;;;;;;;;;;10.20;86.00;;;;;;5043987;28;20040;-78
2021/03/01 12:14:05;;;;;;;0.52;0.50;;;10.20;87.00;;;;;;5046909;28;20024;-79
2021/03/01 12:16:31;;;;;;;;;;;10.10;85.70;;;;;;5040900;28;20087;-78
2021/03/01 12:18:57;;;;;;;1.20;0.73;;;10.10;86.90;;;;;;5051166;28;20382;-77
2021/03/01 12:21:33;;;;;;;1.35;0.70;;;10.20;85.70;;;;;;5045974;28;20084;-79
2021/03/01 12:23:59;;;;;;;;;;;10.40;86.60;;;;;;5051529;28;20072;-77
2021/03/01 12:26:25;;;;;;;0.35;0.28;;;10.40;84.50;;;;;;5045217;28;20045;-78
2021/03/01 12:28:50;;;;;;;;;;;10.50;83.00;;;;;;5062903;28;20048;-79
2021/03/01 12:31:17;;;;;;;0.32;0.30;;;10.60;79.00;;;;;;5051917;28;19943;-77
2021/03/01 12:33:42;;;;;;;;;;;10.60;82.20;;;;;;5044630;28;20044;-78
2021/03/01 12:36:08;;;;;;;0.40;0.30;;;10.60;83.10;;;;;;5051605;28;20292;-77
2021/03/01 12:38:34;;;;;;;;;;;10.70;82.80;;;;;;5051087;28;20079;-77
2021/03/01 12:41:00;;;;;;;0.88;0.30;;;10.70;79.40;;;;;;5050327;28;19959;-80
2021/03/01 12:43:26;;;;;;;1.15;0.30;;;10.70;81.60;;;;;;5051233;28;20072;-77
2021/03/01 12:45:52;;;;;;;;;;;10.70;81.50;;;;;;5046950;28;20435;-78
2021/03/01 12:48:18;;;;;;;0.98;0.30;;;10.70;80.00;;;;;;5048619;28;19924;-78
2021/03/01 12:50:44;;;;;;;;;;;10.80;82.30;;;;;;5038947;28;20519;-76
2021/03/01 12:53:10;;;;;;;0.40;0.40;;;10.90;82.60;;;;;;5049375;28;19924;-79
2021/03/01 12:55:38;;;;;;;;;;;10.80;80.00;;;;;;5052043;28;20079;-80
2021/03/01 12:58:07;;;;;;;0.40;0.30;;;10.90;80.10;;;;;;5055170;28;19924;-81
2021/03/01 13:00:33;;;;;;;0.68;0.30;;;10.90;80.30;;;;;;5051424;28;20112;-79
2021/03/01 13:02:59;;;;;;;;;;;10.90;80.30;;;;;;5062694;28;20171;-77